DIRECCIÓN GENERAL DE AERONÁUTICA CIVIL
DIRECCIÓN METEOROLÓGICA DE CHILE
INFORMACIÓN METAR Y TAF

FIR SANTIAGO

Estación: SCSE
METAR SCSE 010700Z 11001KT 9999 OVC010 12/12 Q1013=

TAF SCSE 010410Z 0106/0206 VRB02KT 9999 OVC012 TX15/0119Z TN12/0110Z TEMPO 0106/0112 12004KT 3000 BR OVC008 BECMG 0116/0118 29008KT BKN015 BECMG 0122/0124 26005KT BECMG 0202/0204 11004KT OVC012=

Estación: SCER
NIL=

NIL=

Estación: SCRD
METAR SCRD 312200Z 18015KT CAVOK 22/12 Q1015=

TAF SCRD 311024Z 3112/3124 VRB02KT CAVOK TX22/3118Z TN10/3112Z BECMG 3116/3118 18010KT=

Estación: SCVM
METAR SCVM 010700Z 00000KT CAVOK 13/12 Q1014=

TAF SCVM 010410Z 0106/0206 VRB02KT CAVOK TX23/0119Z TN13/0110Z TEMPO 0108/0112 15005KT 2000 BR OVC008 BECMG 0116/0118 33008KT BECMG 0200/0202 30005KT=

Estación: SCTB
METAR SCTB 312200Z 20004KT CAVOK 24/04 Q1017=

TAF SCTB 311024Z 3112/3124 VRB02KT 7000 NSC TX27/3119Z TN08/3112Z BECMG 3116/3118 23005KT 5000 HZ=

Estación: SCEL
METAR SCEL 010700Z VRB01KT CAVOK 10/06 Q1017 NOSIG=

TAF SCEL 010410Z 0106/0206 VRB02KT 7000 NSC TX28/0118Z TN08/0110Z BECMG 0114/0116 CAVOK BECMG 0118/0120 19010KT BECMG 0200/0202 15005KT =

Estación: SCSN
METAR SCSN 010700Z AUTO 17004KT 140V200 CAVOK 14/11 Q1015=

TAF SCSN 311023Z 3112/3124 15004KT CAVOK TX21/3118Z TN12/3112Z BECMG 3115/3117 23010KT=

Estación: SCRG
METAR SCRG 312000Z 16014KT CAVOK 22/08 Q1016=

TAF SCRG 311028Z 3112/3124 VRB02KT CAVOK TX26/3118Z TN11/3112Z BECMG 3115/3117 17010KT=

Estación: SCIC
METAR SCIC 010700Z AUTO 18006KT 9999 NCD 10/09 Q1017=

TAF COR SCIC 311049Z 3112/3124 17005KT 2000 BR OVC008 TX22/3118Z TN11 /3112Z TEMPO 3112/3115 0300 FG OVC005 BECMG 3115/3117 22008KT 9999 FEW010 BECMG 3117/3119 CAVOK=

Estación: SCCH
METAR SCCH 312300Z 21008KT CAVOK 17/10 Q1019 =

TAF COR SCCH 311049Z 3112/3124 VRB02KT 2000 BR OVC008 TX21/3119Z TN10 /3112Z TEMPO 3112/3115 0500 FG OVC005 BECMG 3115/3117 22010KT 9999 SCT010 BECMG 3117/3119 CAVOK=

Estación: SCIE
METAR SCIE 010700Z 22006KT 9999 FEW008 08/07 Q1020=

TAF SCIE 010410Z 0106/0206 16006KT CAVOK TX19/0118Z TN11/0110Z BECMG 0114/0116 20008KT BECMG 0118/0120 23012KT BECMG 0200/0202 20008KT BECMG 0204/0206 17005KT=

Estación: SCGE
METAR SCGE 312100Z 18011KT CAVOK 18/10 Q1020=

TAF SCGE 291026Z 3112/3124 VRB02KT CAVOK TX19/3118Z TN10/3112Z TEMPO 3112/3115 9999 SCT008 BECMG 3115/3117 SCT035=


Volver